Main page
METAR-TAF:

METAR-TAF

Airports :

Dakar, Senegal

Léopold Sédar Senghor International Airport

latitude: 14-44N, longitude: 017-30W, elevation: 27 m

Current weather observation

The report was made 43 minutes ago, at 18:30 UTC
Wind 10 kt from the North
Temperature 30°C
Humidity 75%
Pressure 1011 hPa
Visibility 10 km or more
no clouds below 1500 m and no cumulonimbus

METAR: GOOY 211830Z 36010KT CAVOK 30/25 Q1011 NOSIG

Time: 19:13 (19:13 UTC)

Forecast

The report was made 1 hour and 43 minutes ago, at 17:30 UTC
Forecast valid from 21 at 18 UTC to 22 at 24 UTC
Wind 8 kt from the North/Northwest
Visibility 10 km or more
no clouds below 1500 m and no cumulonimbus

TAF: GOOY 211730Z 2118/2224 34008KT CAVOK

Weather observations and forecasts of more than 4000 airports (METAR and TAF reports).

The available stations are represented by yellow and red dots on the map.

Hover mouse over dot to see the name of the station.

Then click to see weather observations and forecasts.

To change the map : click on the green buttons with a black cross to zoom in, on the green button with a dash to zoom out, or on the green arrows for adjacent maps.


METAR-TAF: